createdAt,value
2023-01-27T00:02:10.275Z,24.05
2023-01-27T00:04:37.803Z,25.77
2023-01-27T00:07:05.562Z,25.65
2023-01-27T00:09:32.764Z,23.33
2023-01-27T00:12:18.845Z,23.90
2023-01-27T00:14:48.246Z,25.25
2023-01-27T00:17:17.456Z,26.65
2023-01-27T00:19:45.194Z,26.45
2023-01-27T00:22:31.139Z,25.80
2023-01-27T00:24:58.448Z,23.88
2023-01-27T00:27:27.359Z,24.17
2023-01-27T00:29:54.814Z,24.17
2023-01-27T00:32:41.004Z,25.15
2023-01-27T00:35:08.515Z,21.42
2023-01-27T00:37:35.968Z,26.00
2023-01-27T00:40:03.612Z,26.55
2023-01-27T00:42:31.496Z,24.83
2023-01-27T00:45:18.767Z,26.25
2023-01-27T00:47:49.560Z,28.10
2023-01-27T00:52:46.084Z,24.10
2023-01-27T00:55:16.007Z,25.58
2023-01-27T00:57:43.913Z,23.13
2023-01-27T01:00:12.229Z,24.42
2023-01-27T01:02:39.937Z,24.00
2023-01-27T01:05:08.495Z,24.60
2023-01-27T01:07:36.439Z,24.58
2023-01-27T01:10:05.140Z,26.05
2023-01-27T01:12:32.596Z,26.42
2023-01-27T01:15:01.750Z,25.00
2023-01-27T01:17:28.959Z,26.48
2023-01-27T01:19:59.741Z,25.88
2023-01-27T01:24:54.450Z,24.30
2023-01-27T01:27:22.997Z,24.67
2023-01-27T01:29:51.503Z,26.60
2023-01-27T01:32:18.770Z,27.63
2023-01-27T01:34:46.124Z,29.20
2023-01-27T01:37:13.342Z,27.52
2023-01-27T01:39:44.290Z,26.75
2023-01-27T01:42:11.641Z,25.25
2023-01-27T01:44:46.939Z,25.33
2023-01-27T01:47:18.358Z,25.25
2023-01-27T01:49:47.119Z,25.80
2023-01-27T01:52:16.355Z,23.60
2023-01-27T01:54:46.751Z,25.95
2023-01-27T01:57:23.218Z,26.55
2023-01-27T01:59:56.021Z,26.55
2023-01-27T02:02:26.461Z,26.33
2023-01-27T02:04:54.117Z,24.73
2023-01-27T02:07:40.569Z,24.98
2023-01-27T02:10:08.032Z,24.80
2023-01-27T02:12:35.501Z,23.00
2023-01-27T02:15:06.842Z,22.13
2023-01-27T02:17:34.140Z,22.83
2023-01-27T02:20:04.913Z,22.17
2023-01-27T02:22:40.232Z,20.73
2023-01-27T02:25:12.301Z,22.52
2023-01-27T02:27:39.717Z,23.20
2023-01-27T02:30:07.347Z,21.73
2023-01-27T02:32:35.631Z,21.17
2023-01-27T02:35:03.014Z,23.52
2023-01-27T02:37:31.361Z,21.75
2023-01-27T02:39:59.958Z,22.65
2023-01-27T02:42:28.238Z,22.67
2023-01-27T02:44:55.863Z,22.50
2023-01-27T02:47:23.720Z,21.60
2023-01-27T02:49:51.296Z,21.90
2023-01-27T02:52:18.790Z,22.83
2023-01-27T02:54:46.765Z,22.90
2023-01-27T02:57:13.972Z,20.25
2023-01-27T02:59:43.933Z,17.98
2023-01-27T03:02:21.216Z,17.27
2023-01-27T03:04:48.885Z,18.90
2023-01-27T03:07:16.352Z,18.38
2023-01-27T03:09:43.550Z,19.85
2023-01-27T03:12:23.324Z,20.80
2023-01-27T03:15:10.518Z,20.83
2023-01-27T03:17:57.459Z,20.38
2023-01-27T03:20:32.208Z,20.63
2023-01-27T03:22:59.523Z,19.23
2023-01-27T03:25:27.001Z,21.08
2023-01-27T03:27:54.528Z,20.08
2023-01-27T03:30:21.802Z,20.98
2023-01-27T03:32:49.011Z,20.08
2023-01-27T03:35:16.884Z,20.98
2023-01-27T03:38:03.571Z,20.33
2023-01-27T03:40:51.404Z,21.75
2023-01-27T03:43:40.170Z,21.60
2023-01-27T03:46:20.600Z,21.30
2023-01-27T03:48:54.156Z,24.05
2023-01-27T03:51:24.102Z,24.50
2023-01-27T03:53:52.675Z,22.92
2023-01-27T03:56:21.603Z,23.80
2023-01-27T03:58:49.641Z,25.77
2023-01-27T04:01:21.670Z,25.35
2023-01-27T04:04:08.170Z,26.27
2023-01-27T04:07:00.767Z,25.23
2023-01-27T04:09:30.030Z,25.55
2023-01-27T04:11:59.168Z,24.75
2023-01-27T04:14:30.776Z,24.85
2023-01-27T04:27:44.459Z,25.45
2023-01-27T04:30:12.341Z,23.60
2023-01-27T04:32:39.579Z,25.17
2023-01-27T04:35:07.260Z,27.65
2023-01-27T04:37:34.712Z,26.85
2023-01-27T04:40:02.512Z,26.52
2023-01-27T04:42:29.963Z,26.85
2023-01-27T04:44:58.652Z,26.52
2023-01-27T04:47:35.017Z,26.50
2023-01-27T04:50:39.692Z,25.85
2023-01-27T04:54:19.124Z,24.05
2023-01-27T05:04:50.204Z,23.35
2023-01-27T05:16:47.145Z,25.08
2023-01-27T05:33:13.642Z,27.30
2023-01-27T05:38:37.004Z,38.03
2023-01-27T05:41:07.457Z,37.88
2023-01-27T05:43:35.730Z,39.47
2023-01-27T05:46:10.336Z,45.08
2023-01-27T05:48:38.422Z,48.30
2023-01-27T05:51:06.255Z,53.25
2023-01-27T05:53:33.934Z,39.58
2023-01-27T05:56:01.305Z,38.33
2023-01-27T05:58:28.561Z,48.33
2023-01-27T06:00:56.044Z,57.30
2023-01-27T06:03:23.903Z,43.80
2023-01-27T06:05:54.879Z,42.17
2023-01-27T06:08:22.896Z,48.92
2023-01-27T06:10:50.059Z,56.97
2023-01-27T06:13:17.360Z,47.30
2023-01-27T06:15:46.234Z,38.95
2023-01-27T06:18:13.696Z,53.42
2023-01-27T06:20:41.505Z,54.90
2023-01-27T06:23:10.174Z,45.88
2023-01-27T06:25:43.269Z,36.38
2023-01-27T06:28:12.586Z,34.83
2023-01-27T07:19:45.857Z,28.20
2023-01-27T07:58:25.414Z,26.13
2023-01-27T08:01:15.957Z,26.67
2023-01-27T09:07:03.271Z,21.77
2023-01-27T09:25:38.505Z,22.92
2023-01-27T09:27:38.773Z,22.35
2023-01-27T09:54:52.201Z,16.23
2023-01-27T10:01:57.765Z,14.43
2023-01-27T10:16:41.493Z,16.30
2023-01-27T10:34:04.537Z,15.30
2023-01-27T11:01:34.338Z,17.05
2023-01-27T11:04:48.945Z,17.25
2023-01-27T11:20:13.617Z,14.25
2023-01-27T11:25:19.168Z,15.65
2023-01-27T11:31:46.658Z,17.45
2023-01-27T12:40:51.297Z,13.45
2023-01-27T13:34:02.220Z,13.90
2023-01-27T13:47:47.232Z,17.52
2023-01-27T13:50:22.750Z,18.73
2023-01-27T13:52:56.071Z,12.35
2023-01-27T13:55:49.740Z,14.13
2023-01-27T13:58:42.870Z,12.55
2023-01-27T14:01:39.714Z,13.70
2023-01-27T14:04:12.343Z,13.30
2023-01-27T14:07:01.031Z,13.57
2023-01-27T14:09:51.801Z,12.30
2023-01-27T14:15:25.795Z,12.73
2023-01-27T14:18:16.528Z,12.93
2023-01-27T14:21:02.026Z,14.20
2023-01-27T14:23:44.341Z,13.18
2023-01-27T14:26:26.679Z,13.82
2023-01-27T14:29:02.903Z,13.85
2023-01-27T14:31:56.652Z,13.90
2023-01-27T14:34:46.901Z,13.82
2023-01-27T14:37:19.273Z,16.27
2023-01-27T14:40:00.878Z,14.93
2023-01-27T14:42:33.443Z,15.10
2023-01-27T14:45:13.441Z,13.27
2023-01-27T14:47:58.261Z,13.15
2023-01-27T14:50:44.807Z,13.80
2023-01-27T14:53:22.821Z,14.02
2023-01-27T14:55:57.100Z,16.45
2023-01-27T14:58:32.436Z,15.93
2023-01-27T15:01:11.583Z,15.57
2023-01-27T15:03:46.075Z,15.85
2023-01-27T15:06:53.495Z,16.73
2023-01-27T15:09:50.032Z,17.05
2023-01-27T15:12:26.218Z,17.00
2023-01-27T15:15:42.928Z,19.27
2023-01-27T16:16:43.832Z,23.00
2023-01-27T16:33:49.803Z,19.40
2023-01-27T16:36:35.768Z,20.15
2023-01-27T16:39:18.385Z,18.30
2023-01-27T16:41:55.161Z,21.52
2023-01-27T16:44:38.337Z,20.95
2023-01-27T16:47:16.882Z,22.13
2023-01-27T16:49:44.887Z,22.27
2023-01-27T16:52:21.240Z,23.05
2023-01-27T16:54:53.145Z,20.88
2023-01-27T16:57:35.703Z,19.92
2023-01-27T17:00:20.942Z,22.90
2023-01-27T17:02:48.874Z,32.78
2023-01-27T17:05:17.542Z,29.55
2023-01-27T17:08:20.876Z,23.00
2023-01-27T17:11:04.697Z,22.00
2023-01-27T17:13:35.119Z,22.63
2023-01-27T17:16:06.519Z,23.55
2023-01-27T17:18:50.714Z,23.00
2023-01-27T17:21:36.361Z,23.55
2023-01-27T17:24:15.966Z,22.75
2023-01-27T17:26:46.489Z,26.98
2023-01-27T17:29:19.524Z,30.42
2023-01-27T17:31:48.206Z,24.77
2023-01-27T17:34:18.897Z,22.85
2023-01-27T17:39:37.682Z,32.20
2023-01-27T17:42:05.938Z,19.95
2023-01-27T17:44:33.273Z,22.63
2023-01-27T17:47:04.139Z,22.83
2023-01-27T17:49:32.526Z,22.33
2023-01-27T17:52:00.447Z,23.58
2023-01-27T17:54:37.851Z,23.20
2023-01-27T17:57:27.487Z,21.75
2023-01-27T18:00:17.247Z,21.90
2023-01-27T18:02:59.651Z,22.83
2023-01-27T18:05:36.875Z,22.75
2023-01-27T18:08:09.395Z,24.55
2023-01-27T18:10:44.332Z,24.90
2023-01-27T18:13:27.401Z,21.77
2023-01-27T18:39:02.005Z,21.33
2023-01-27T19:10:39.389Z,18.67
2023-01-27T19:11:52.580Z,18.45
2023-01-27T19:33:00.876Z,18.70
2023-01-27T19:42:22.445Z,18.90
2023-01-27T19:50:00.517Z,18.23
2023-01-27T20:23:51.504Z,13.38
2023-01-27T20:29:32.264Z,14.18
2023-01-27T20:34:33.765Z,12.85
2023-01-27T20:37:00.485Z,13.25
2023-01-27T20:39:27.303Z,14.68
2023-01-27T20:41:54.120Z,15.30
2023-01-27T20:44:20.817Z,14.38
2023-01-27T20:46:49.507Z,18.67
2023-01-27T20:49:16.335Z,44.47
2023-01-27T20:51:44.640Z,19.25
2023-01-27T20:54:13.409Z,15.10
2023-01-27T20:56:41.697Z,14.07
2023-01-27T20:59:09.729Z,16.02
2023-01-27T21:01:36.823Z,16.60
2023-01-27T21:04:03.643Z,14.25
2023-01-27T21:06:30.803Z,14.15
2023-01-27T21:09:00.397Z,14.13
2023-01-27T21:11:27.197Z,12.57
2023-01-27T21:13:54.202Z,18.52
2023-01-27T21:16:21.350Z,13.80
2023-01-27T21:18:48.270Z,15.52
2023-01-27T21:21:35.307Z,16.80
2023-01-27T21:24:02.072Z,14.10
2023-01-27T21:26:28.849Z,13.52
2023-01-27T21:28:56.969Z,14.68
2023-01-27T21:31:24.780Z,19.17
2023-01-27T21:33:51.833Z,23.48
2023-01-27T21:36:19.573Z,26.15
2023-01-27T21:38:49.351Z,24.65
2023-01-27T21:41:39.922Z,24.83
2023-01-27T21:44:32.163Z,17.00
2023-01-27T21:46:59.040Z,13.75
2023-01-27T21:49:25.796Z,19.30
2023-01-27T21:51:52.748Z,15.35
2023-01-27T21:54:19.898Z,17.15
2023-01-27T21:56:46.906Z,18.15
2023-01-27T21:59:14.007Z,14.25
2023-01-27T22:01:41.395Z,17.15
2023-01-27T22:04:08.396Z,17.40
2023-01-27T22:06:36.835Z,19.30
2023-01-27T22:09:03.660Z,13.45
2023-01-27T22:11:30.530Z,12.90
2023-01-27T22:13:57.512Z,12.65
2023-01-27T22:16:26.875Z,13.75
2023-01-27T22:59:54.358Z,10.65
2023-01-27T23:06:52.483Z,12.85
2023-01-27T23:10:25.000Z,13.23
2023-01-27T23:20:37.812Z,11.45
2023-01-27T23:38:32.463Z,11.68
2023-01-27T23:55:29.062Z,12.60
